createdAt,value
2023-04-04T00:00:47.667Z,4.68
2023-04-04T00:05:07.623Z,5.40
2023-04-04T00:09:27.311Z,6.13
2023-04-04T00:13:46.483Z,6.70
2023-04-04T00:18:06.293Z,5.53
2023-04-04T00:22:24.029Z,4.90
2023-04-04T00:26:42.112Z,6.03
2023-04-04T00:31:02.269Z,5.43
2023-04-04T00:35:21.723Z,74.80
2023-04-04T00:39:39.355Z,103.70
2023-04-04T00:43:57.828Z,26.25
2023-04-04T00:48:17.140Z,51.60
2023-04-04T00:52:37.562Z,62.80
2023-04-04T00:56:55.586Z,45.77
2023-04-04T01:01:15.792Z,6.53
2023-04-04T01:05:35.724Z,6.03
2023-04-04T01:09:58.206Z,14.40
2023-04-04T01:14:16.303Z,8.95
2023-04-04T01:18:35.946Z,12.18
2023-04-04T01:22:58.088Z,23.67
2023-04-04T01:27:17.925Z,18.63
2023-04-04T01:31:53.402Z,18.85
2023-04-04T01:36:18.290Z,83.65
2023-04-04T01:40:42.501Z,81.20
2023-04-04T01:45:03.918Z,70.65
2023-04-04T01:49:27.185Z,68.32
2023-04-04T01:53:47.643Z,91.50
2023-04-04T01:58:05.808Z,71.90
2023-04-04T02:02:25.241Z,31.60
2023-04-04T02:06:45.463Z,27.53
2023-04-04T02:11:03.152Z,100.53
2023-04-04T02:15:21.010Z,71.30
2023-04-04T02:19:40.808Z,47.60
2023-04-04T02:24:00.399Z,57.07
2023-04-04T02:28:18.297Z,43.72
2023-04-04T02:32:36.579Z,34.25
2023-04-04T02:36:58.873Z,74.13
2023-04-04T02:41:21.973Z,50.00
2023-04-04T02:45:40.133Z,42.28
2023-04-04T02:50:19.883Z,39.47
2023-04-04T02:54:46.322Z,35.13
2023-04-04T02:59:17.185Z,8.23
2023-04-04T03:03:35.136Z,11.85
2023-04-04T03:07:56.303Z,10.90
2023-04-04T03:12:15.455Z,9.80
2023-04-04T03:16:35.436Z,11.13
2023-04-04T03:20:53.503Z,12.27
2023-04-04T03:25:11.899Z,8.63
2023-04-04T03:29:31.260Z,10.00
2023-04-04T03:33:50.539Z,9.97
2023-04-04T03:38:08.875Z,20.30
2023-04-04T03:42:27.147Z,9.07
2023-04-04T03:46:46.016Z,8.82
2023-04-04T03:51:06.154Z,15.10
2023-04-04T03:55:24.064Z,10.02
2023-04-04T03:59:45.092Z,11.80
2023-04-04T04:04:04.516Z,8.50
2023-04-04T04:08:25.260Z,8.90
2023-04-04T04:12:45.762Z,8.48
2023-04-04T04:17:04.041Z,8.40
2023-04-04T04:21:22.805Z,11.25
2023-04-04T04:25:42.609Z,7.18
2023-04-04T04:30:10.656Z,10.93
2023-04-04T04:34:33.956Z,13.93
2023-04-04T04:38:54.110Z,13.70
2023-04-04T04:43:13.360Z,18.63
2023-04-04T04:47:32.790Z,13.87
2023-04-04T04:51:55.606Z,9.70
2023-04-04T04:56:15.046Z,11.48
2023-04-04T05:00:34.896Z,17.63
2023-04-04T05:04:53.109Z,18.38
2023-04-04T05:09:10.942Z,25.52
2023-04-04T05:13:33.306Z,8.38
2023-04-04T05:17:53.751Z,8.07
2023-04-04T05:22:14.153Z,7.70
2023-04-04T05:26:38.332Z,6.97
2023-04-04T05:30:58.637Z,7.20
2023-04-04T05:35:20.619Z,7.60
2023-04-04T05:39:39.538Z,9.35
2023-04-04T05:44:00.989Z,9.53
2023-04-04T05:48:22.273Z,6.40
2023-04-04T05:52:45.160Z,8.35
2023-04-04T05:57:06.264Z,9.00
2023-04-04T06:01:36.517Z,7.13
2023-04-04T06:06:04.712Z,9.05
2023-04-04T06:10:25.171Z,16.52
2023-04-04T06:14:46.334Z,8.97
2023-04-04T06:19:07.455Z,10.90
2023-04-04T06:23:29.184Z,9.13
2023-04-04T06:27:46.335Z,4.70
2023-04-04T06:32:05.361Z,14.25
2023-04-04T06:36:31.794Z,6.90
2023-04-04T06:40:54.433Z,9.15
2023-04-04T06:45:13.972Z,8.03
2023-04-04T06:49:32.123Z,5.97
2023-04-04T06:53:50.479Z,7.53
2023-04-04T06:58:09.661Z,7.43
2023-04-04T07:02:29.572Z,5.25
2023-04-04T07:06:47.344Z,7.35
2023-04-04T07:11:06.431Z,8.43
2023-04-04T07:15:28.821Z,8.07
2023-04-04T07:19:47.555Z,5.88
2023-04-04T07:24:06.189Z,6.97
2023-04-04T07:28:23.860Z,6.63
2023-04-04T07:32:43.088Z,9.30
2023-04-04T07:37:03.049Z,6.88
2023-04-04T07:41:21.343Z,5.70
2023-04-04T07:45:39.136Z,8.48
2023-04-04T07:49:58.888Z,7.30
2023-04-04T07:54:18.401Z,5.17
2023-04-04T07:58:36.874Z,7.28
2023-04-04T08:02:54.922Z,6.97
2023-04-04T08:07:14.209Z,7.60
2023-04-04T08:11:33.734Z,6.13
2023-04-04T08:15:51.653Z,8.52
2023-04-04T08:20:10.651Z,6.88
2023-04-04T08:24:28.907Z,10.83
2023-04-04T08:28:49.132Z,8.38
2023-04-04T08:33:07.002Z,6.55
2023-04-04T08:37:24.910Z,6.57
2023-04-04T08:41:47.162Z,6.40
2023-04-04T08:46:10.182Z,7.05
2023-04-04T08:50:32.357Z,7.82
2023-04-04T08:54:50.139Z,7.83
2023-04-04T08:59:11.487Z,7.60
2023-04-04T09:03:31.230Z,6.78
2023-04-04T09:07:51.371Z,7.10
2023-04-04T09:12:11.196Z,7.45
2023-04-04T09:16:30.434Z,6.80
2023-04-04T09:20:50.600Z,6.40
2023-04-04T09:25:09.985Z,6.00
2023-04-04T09:29:29.268Z,7.72
2023-04-04T09:33:50.475Z,6.95
2023-04-04T09:38:08.828Z,6.93
2023-04-04T09:42:26.816Z,7.78
2023-04-04T09:46:45.314Z,5.05
2023-04-04T09:51:05.907Z,6.53
2023-04-04T09:55:32.274Z,6.95
2023-04-04T09:59:51.397Z,8.00
2023-04-04T10:04:10.576Z,5.40
2023-04-04T10:08:32.199Z,6.00
2023-04-04T10:12:54.372Z,7.47
2023-04-04T10:17:13.592Z,6.45
2023-04-04T10:21:33.785Z,6.50
2023-04-04T10:25:53.109Z,6.68
2023-04-04T10:30:13.836Z,4.75
2023-04-04T10:34:44.181Z,6.53
2023-04-04T10:39:10.217Z,7.07
2023-04-04T10:43:34.077Z,4.88
2023-04-04T10:47:52.887Z,5.13
2023-04-04T10:52:12.166Z,6.00
2023-04-04T10:56:32.097Z,9.35
2023-04-04T11:00:56.850Z,5.55
2023-04-04T11:05:16.531Z,5.63
2023-04-04T11:09:48.885Z,7.72
2023-04-04T11:14:11.740Z,5.57
2023-04-04T11:18:49.983Z,5.47
2023-04-04T11:23:12.543Z,5.45
2023-04-04T11:27:31.717Z,5.95
2023-04-04T11:31:52.317Z,5.53
2023-04-04T11:36:49.713Z,4.55
2023-04-04T11:41:07.951Z,5.25
2023-04-04T11:45:27.710Z,5.38
2023-04-04T11:49:48.128Z,5.67
2023-04-04T11:54:16.126Z,5.88
2023-04-04T11:58:37.145Z,5.80
2023-04-04T12:02:57.182Z,5.57
2023-04-04T12:07:15.469Z,4.15
2023-04-04T12:11:38.523Z,5.88
2023-04-04T12:15:57.807Z,4.93
2023-04-04T12:20:18.078Z,6.00
2023-04-04T12:24:36.253Z,4.80
2023-04-04T12:28:57.307Z,5.63
2023-04-04T12:33:15.167Z,9.37
2023-04-04T12:37:34.364Z,3.38
2023-04-04T12:41:55.131Z,5.57
2023-04-04T12:46:13.554Z,4.83
2023-04-04T12:50:33.306Z,5.20
2023-04-04T12:55:06.690Z,5.53
2023-04-04T12:59:31.055Z,3.93
2023-04-04T13:03:51.130Z,3.78
2023-04-04T13:08:11.559Z,6.18
2023-04-04T13:12:56.805Z,6.05
2023-04-04T13:17:14.361Z,6.70
2023-04-04T13:21:33.307Z,5.78
2023-04-04T13:25:53.035Z,4.88
2023-04-04T13:30:12.069Z,15.43
2023-04-04T13:34:34.025Z,77.50
2023-04-04T13:38:54.938Z,5.93
2023-04-04T13:43:15.263Z,9.47
2023-04-04T13:47:32.610Z,21.92
2023-04-04T13:51:50.623Z,7.50
2023-04-04T14:13:33.334Z,5.82
2023-04-04T14:17:51.319Z,7.63
2023-04-04T14:22:32.937Z,7.60
2023-04-04T14:26:54.673Z,6.28
2023-04-04T14:31:14.714Z,8.50
2023-04-04T14:35:35.892Z,10.55
2023-04-04T14:39:55.244Z,6.43
2023-04-04T14:44:13.397Z,7.60
2023-04-04T14:48:33.344Z,7.03
2023-04-04T14:52:53.034Z,4.25
2023-04-04T14:57:17.704Z,8.23
2023-04-04T15:01:41.653Z,7.93
2023-04-04T15:06:07.321Z,14.95
2023-04-04T15:10:31.517Z,16.70
2023-04-04T15:14:55.325Z,15.90
2023-04-04T15:19:19.277Z,12.02
2023-04-04T15:23:44.835Z,20.02
2023-04-04T15:28:08.869Z,12.85
2023-04-04T15:32:32.697Z,13.73
2023-04-04T15:36:59.560Z,18.98
2023-04-04T15:41:25.084Z,37.55
2023-04-04T15:45:49.165Z,59.70
2023-04-04T15:50:13.093Z,26.38
2023-04-04T15:54:37.235Z,7.03
2023-04-04T15:59:02.759Z,6.53
2023-04-04T16:03:26.926Z,57.88
2023-04-04T16:07:51.411Z,28.15
2023-04-04T16:12:15.390Z,54.15
2023-04-04T16:16:41.396Z,37.80
2023-04-04T16:21:05.822Z,76.38
2023-04-04T16:25:30.234Z,70.30
2023-04-04T16:29:54.256Z,9.83
2023-04-04T16:34:21.077Z,13.18
2023-04-04T16:38:45.139Z,12.90
2023-04-04T16:43:09.513Z,15.50
2023-04-04T16:47:33.377Z,48.90
2023-04-04T16:51:58.606Z,33.83
2023-04-04T16:56:22.566Z,12.93
2023-04-04T17:00:46.511Z,30.70
2023-04-04T17:05:10.825Z,61.17
2023-04-04T17:09:36.055Z,40.90
2023-04-04T17:14:00.144Z,71.53
2023-04-04T17:18:24.102Z,36.38
2023-04-04T17:22:49.759Z,64.55
2023-04-04T17:27:15.063Z,64.07
2023-04-04T17:31:40.329Z,70.35
2023-04-04T17:36:04.622Z,61.50
2023-04-04T17:40:28.427Z,53.88
2023-04-04T17:44:54.103Z,26.07
2023-04-04T17:49:20.188Z,67.40
2023-04-04T17:53:44.923Z,98.95
2023-04-04T17:58:09.132Z,139.70
2023-04-04T18:02:34.619Z,156.73
2023-04-04T18:06:59.080Z,138.07
2023-04-04T18:11:23.133Z,190.83
2023-04-04T18:15:47.282Z,19.35
2023-04-04T18:20:18.531Z,11.73
2023-04-04T18:24:48.817Z,10.07
2023-04-04T18:29:13.320Z,10.97
2023-04-04T18:33:37.121Z,78.38
2023-04-04T18:38:02.381Z,49.00
2023-04-04T18:42:26.477Z,14.03
2023-04-04T18:46:50.367Z,8.40
2023-04-04T18:51:15.764Z,6.60
2023-04-04T18:55:41.101Z,8.33
2023-04-04T19:00:06.806Z,16.65
2023-04-04T19:04:33.316Z,11.70
2023-04-04T19:08:58.958Z,8.43
2023-04-04T19:13:27.191Z,10.13
2023-04-04T19:17:51.434Z,10.50
2023-04-04T19:22:15.243Z,9.45
2023-04-04T19:26:39.061Z,9.13
2023-04-04T19:31:10.889Z,22.35
2023-04-04T19:35:53.833Z,11.98
2023-04-04T19:40:39.792Z,8.83
2023-04-04T19:45:10.894Z,10.73
2023-04-04T19:49:38.171Z,9.63
2023-04-04T19:54:02.094Z,12.23
2023-04-04T19:58:26.166Z,10.33
2023-04-04T20:02:56.950Z,11.98
2023-04-04T20:07:22.521Z,12.38
2023-04-04T20:11:46.427Z,18.50
2023-04-04T20:16:12.616Z,20.42
2023-04-04T20:20:48.865Z,19.42
2023-04-04T20:25:40.870Z,34.40
2023-04-04T20:30:10.638Z,21.80
2023-04-04T20:34:41.996Z,29.85
2023-04-04T20:39:29.508Z,39.00
2023-04-04T20:43:57.275Z,35.43
2023-04-04T20:48:36.853Z,33.90
2023-04-04T20:53:03.077Z,43.88
2023-04-04T20:57:25.644Z,56.00
2023-04-04T21:01:50.992Z,105.15
2023-04-04T21:06:16.700Z,81.72
2023-04-04T21:10:50.447Z,57.20
2023-04-04T21:15:22.487Z,101.35
2023-04-04T21:19:50.158Z,79.95
2023-04-04T21:24:14.917Z,63.00
2023-04-04T21:28:40.209Z,88.80
2023-04-04T21:33:04.282Z,50.65
2023-04-04T21:37:29.696Z,79.63
2023-04-04T21:41:56.569Z,78.70
2023-04-04T21:46:20.879Z,75.85
2023-04-04T21:50:44.730Z,82.30
2023-04-04T21:55:10.834Z,58.13
2023-04-04T21:59:34.878Z,37.65
2023-04-04T22:03:58.794Z,29.40
2023-04-04T22:08:23.787Z,69.53
2023-04-04T22:12:49.998Z,43.70
2023-04-04T22:17:22.904Z,44.80
2023-04-04T22:21:48.641Z,46.28
2023-04-04T22:26:18.118Z,82.10
2023-04-04T22:30:43.662Z,63.20
2023-04-04T22:35:08.393Z,55.83
2023-04-04T22:39:32.206Z,44.77
2023-04-04T22:43:56.155Z,42.22
2023-04-04T22:48:23.963Z,33.60
2023-04-04T22:52:48.289Z,24.30
2023-04-04T22:57:12.476Z,35.07
2023-04-04T23:01:36.773Z,35.90
2023-04-04T23:06:02.173Z,42.95
2023-04-04T23:10:25.946Z,30.87
2023-04-04T23:14:49.838Z,39.75
2023-04-04T23:19:14.134Z,32.30
2023-04-04T23:23:39.422Z,26.03
2023-04-04T23:28:03.500Z,17.58
2023-04-04T23:32:28.313Z,16.55
2023-04-04T23:36:52.366Z,19.60
2023-04-04T23:41:18.397Z,24.60
2023-04-04T23:45:42.373Z,21.20
2023-04-04T23:50:07.644Z,20.20
2023-04-04T23:54:31.584Z,17.37
2023-04-04T23:58:57.566Z,14.68
